map of JAX home
JAX - Airport
Location
City:  Jacksonville, Florida, United States
Name:Jacksonville International Airport
ICAO:KJAX
IATA:JAX
FAA LID:JAX

Details
Type:Airport (Part 139 Class I)
Use:Public/Civil, International (customs landing rights)
Latitude:3029'39"N (30.494056)
Longitude:8141'16"W (-81.687832)
Datum:WGS 1984
Elevation:29 ft (9 m)
Variation:6.47W (WMM2015 magnetic declination)
-0.09 annual change
Runways:2
Longest:10000 × 150 ft (3048 × 45.5 m), paved

Time
Time Zone:UTC-5 (DST-4)
Local Time:

Weather
METAR:KJAX 120956Z 22003KT 8SM CLR 07/06 A2999 RMK AO2 SLP156 T00720061 $
TAF:KJAX 120520Z 1206/1306 24005KT P6SM SKC
FM121500 26018G28KT P6SM FEW050
FM130000 29008KT P6SM SKC

Related Locations
Nearby:
Farthest:USL: 11479 mi / 18474 km
Useless Loop, WA, AU

Find:

   beyond  
but within

Other Information
Maps:
Delays:
NOTAMs:
Links:
Sources:

  
flag of United States
flag of Florida
  

Airport Diagram

Airport diagram for JAX

Airport diagram PDF

Sectional Chart

Flight Planning
at skyvector.com

Satellite Image

Google Maps Satellite view

 

Copyright © 2004-2017 Karl L. Swartz. All rights reserved.
The Great Circle Mapper name and logo are trademarks of the Great Circle Mapper.
All other trademarks mentioned herein belong to their respective owners.
Please see credits for attibutions and further copyright information.

  Follow gcmap on Facebook Follow gcmap on Twitter Follow gcmap on Google+ GCmap on LinkedIn

hCard Microformat

Geo Microformat